createdAt,value
2017-08-29T00:00:07.527Z,18.77
2017-08-29T00:01:08.257Z,18.78
2017-08-29T00:02:09.004Z,18.65
2017-08-29T00:03:09.724Z,18.75
2017-08-29T00:04:10.447Z,18.71
2017-08-29T00:05:11.172Z,18.70
2017-08-29T00:06:11.923Z,18.75
2017-08-29T00:07:12.642Z,18.68
2017-08-29T00:08:13.363Z,18.77
2017-08-29T00:09:14.086Z,18.77
2017-08-29T00:10:14.836Z,18.74
2017-08-29T00:11:15.555Z,18.63
2017-08-29T00:12:16.280Z,18.65
2017-08-29T00:13:17.023Z,18.66
2017-08-29T00:14:17.751Z,18.74
2017-08-29T00:15:18.468Z,18.71
2017-08-29T00:16:19.194Z,18.68
2017-08-29T00:17:19.935Z,18.63
2017-08-29T00:18:20.668Z,18.71
2017-08-29T00:19:21.393Z,18.70
2017-08-29T00:20:22.116Z,18.66
2017-08-29T00:21:22.841Z,18.62
2017-08-29T00:22:23.563Z,18.65
2017-08-29T00:23:24.295Z,18.66
2017-08-29T00:24:25.035Z,18.58
2017-08-29T00:25:25.780Z,18.55
2017-08-29T00:26:26.505Z,18.58
2017-08-29T00:27:27.228Z,18.58
2017-08-29T00:28:27.975Z,18.60
2017-08-29T00:29:28.703Z,18.60
2017-08-29T00:30:29.453Z,18.47
2017-08-29T00:31:30.175Z,18.52
2017-08-29T00:32:30.900Z,18.49
2017-08-29T00:33:31.625Z,18.47
2017-08-29T00:34:32.345Z,18.44
2017-08-29T00:35:33.091Z,18.60
2017-08-29T00:36:33.811Z,18.44
2017-08-29T00:37:34.532Z,18.45
2017-08-29T00:38:35.264Z,18.49
2017-08-29T00:39:35.981Z,18.45
2017-08-29T00:40:36.727Z,18.38
2017-08-29T00:41:37.450Z,18.35
2017-08-29T00:42:38.197Z,18.38
2017-08-29T00:43:38.924Z,18.31
2017-08-29T00:44:39.653Z,18.31
2017-08-29T00:45:40.371Z,18.38
2017-08-29T00:46:41.095Z,18.26
2017-08-29T00:47:41.818Z,18.25
2017-08-29T00:48:42.562Z,18.28
2017-08-29T00:49:43.290Z,18.26
2017-08-29T00:50:44.011Z,18.31
2017-08-29T00:51:44.735Z,18.29
2017-08-29T00:52:45.458Z,18.31
2017-08-29T00:53:46.178Z,18.34
2017-08-29T00:54:46.901Z,18.31
2017-08-29T00:55:47.643Z,18.34
2017-08-29T00:56:48.387Z,18.31
2017-08-29T00:57:49.109Z,18.37
2017-08-29T00:58:49.832Z,18.25
2017-08-29T00:59:50.555Z,18.31
2017-08-29T01:00:51.274Z,18.19
2017-08-29T01:01:51.997Z,18.29
2017-08-29T01:02:52.719Z,18.28
2017-08-29T01:03:53.444Z,18.20
2017-08-29T01:04:54.491Z,18.23
2017-08-29T01:05:55.212Z,18.20
2017-08-29T01:06:55.937Z,18.22
2017-08-29T01:07:56.679Z,18.23
2017-08-29T01:08:57.383Z,18.22
2017-08-29T01:09:58.106Z,18.25
2017-08-29T01:10:58.829Z,18.22
2017-08-29T01:11:59.554Z,18.28
2017-08-29T01:13:00.276Z,18.25
2017-08-29T01:14:00.998Z,18.31
2017-08-29T01:15:01.731Z,18.20
2017-08-29T01:16:02.473Z,18.23
2017-08-29T01:17:03.199Z,18.16
2017-08-29T01:18:03.924Z,18.29
2017-08-29T01:19:04.643Z,18.19
2017-08-29T01:20:05.369Z,18.20
2017-08-29T01:21:06.090Z,18.28
2017-08-29T01:22:06.810Z,18.23
2017-08-29T01:23:07.554Z,18.22
2017-08-29T01:24:08.298Z,18.20
2017-08-29T01:25:09.039Z,18.22
2017-08-29T01:26:09.785Z,18.13
2017-08-29T01:27:10.510Z,18.10
2017-08-29T01:28:11.230Z,18.10
2017-08-29T01:29:11.954Z,18.04
2017-08-29T01:30:12.677Z,18.10
2017-08-29T01:31:13.419Z,18.03
2017-08-29T01:32:14.141Z,18.03
2017-08-29T01:33:14.867Z,18.03
2017-08-29T01:34:15.591Z,17.98
2017-08-29T01:35:16.316Z,17.98
2017-08-29T01:36:17.042Z,17.98
2017-08-29T01:37:17.764Z,18.00
2017-08-29T01:38:18.484Z,18.00
2017-08-29T01:39:19.210Z,17.98
2017-08-29T01:40:19.932Z,17.92
2017-08-29T01:41:20.656Z,17.95
2017-08-29T01:42:21.379Z,17.85
2017-08-29T01:43:22.101Z,17.87
2017-08-29T01:44:22.822Z,17.89
2017-08-29T01:45:23.546Z,17.87
2017-08-29T01:46:24.289Z,17.80
2017-08-29T01:47:25.013Z,17.80
2017-08-29T01:48:25.740Z,17.85
2017-08-29T01:49:26.455Z,17.83
2017-08-29T01:50:27.180Z,17.72
2017-08-29T01:51:27.905Z,17.85
2017-08-29T01:52:28.624Z,17.72
2017-08-29T01:53:29.370Z,17.68
2017-08-29T01:54:30.119Z,17.79
2017-08-29T01:55:30.842Z,17.76
2017-08-29T01:56:31.584Z,17.78
2017-08-29T01:57:32.327Z,17.76
2017-08-29T01:58:33.048Z,17.70
2017-08-29T01:59:33.771Z,17.70
2017-08-29T02:00:34.496Z,17.64
2017-08-29T02:01:35.218Z,17.63
2017-08-29T02:02:35.941Z,17.63
2017-08-29T02:03:36.664Z,17.67
2017-08-29T02:04:37.405Z,17.63
2017-08-29T02:05:38.127Z,17.59
2017-08-29T02:06:38.849Z,17.56
2017-08-29T02:07:39.573Z,17.49
2017-08-29T02:08:40.295Z,17.46
2017-08-29T02:09:41.041Z,17.51
2017-08-29T02:10:41.762Z,17.46
2017-08-29T02:11:42.491Z,17.48
2017-08-29T02:12:43.210Z,17.49
2017-08-29T02:13:43.934Z,17.48
2017-08-29T02:14:44.676Z,17.41
2017-08-29T02:15:45.400Z,17.42
2017-08-29T02:16:46.124Z,17.44
2017-08-29T02:17:46.842Z,17.41
2017-08-29T02:18:47.569Z,17.39
2017-08-29T02:19:48.283Z,17.42
2017-08-29T02:20:49.006Z,17.42
2017-08-29T02:21:49.727Z,17.46
2017-08-29T02:22:50.453Z,17.42
2017-08-29T02:23:51.172Z,17.38
2017-08-29T02:24:51.914Z,17.38
2017-08-29T02:25:52.641Z,17.39
2017-08-29T02:26:53.362Z,17.33
2017-08-29T02:27:54.107Z,17.36
2017-08-29T02:28:54.846Z,17.39
2017-08-29T02:29:55.572Z,17.39
2017-08-29T02:30:56.312Z,17.29
2017-08-29T02:31:57.032Z,17.33
2017-08-29T02:32:57.755Z,17.31
2017-08-29T02:33:58.477Z,17.27
2017-08-29T02:34:59.203Z,17.27
2017-08-29T02:35:59.927Z,17.29
2017-08-29T02:37:00.654Z,17.27
2017-08-29T02:38:01.378Z,17.23
2017-08-29T02:39:02.104Z,17.24
2017-08-29T02:40:02.824Z,17.24
2017-08-29T02:41:03.544Z,17.27
2017-08-29T02:42:04.288Z,17.24
2017-08-29T02:43:05.011Z,17.31
2017-08-29T02:44:05.736Z,17.24
2017-08-29T02:45:06.454Z,17.31
2017-08-29T02:46:07.181Z,17.31
2017-08-29T02:47:07.901Z,17.31
2017-08-29T02:48:08.626Z,17.38
2017-08-29T02:49:09.370Z,17.36
2017-08-29T02:50:10.110Z,17.38
2017-08-29T02:51:10.834Z,17.38
2017-08-29T02:52:11.557Z,17.34
2017-08-29T02:53:12.303Z,17.38
2017-08-29T02:54:13.083Z,17.33
2017-08-29T02:55:13.771Z,17.30
2017-08-29T02:56:14.517Z,17.27
2017-08-29T02:57:15.262Z,17.26
2017-08-29T02:58:16.006Z,17.27
2017-08-29T02:59:16.728Z,17.22
2017-08-29T03:00:17.449Z,17.15
2017-08-29T03:01:18.193Z,17.22
2017-08-29T03:02:18.916Z,17.15
2017-08-29T03:03:19.658Z,17.20
2017-08-29T03:04:20.380Z,17.15
2017-08-29T03:05:21.104Z,17.14
2017-08-29T03:06:21.846Z,17.06
2017-08-29T03:07:22.587Z,17.08
2017-08-29T03:08:23.311Z,17.01
2017-08-29T03:09:24.035Z,17.09
2017-08-29T03:10:24.761Z,17.08
2017-08-29T03:11:25.479Z,17.04
2017-08-29T03:12:26.204Z,17.02
2017-08-29T03:13:26.923Z,17.02
2017-08-29T03:14:27.644Z,17.06
2017-08-29T03:15:28.371Z,17.04
2017-08-29T03:16:29.090Z,17.04
2017-08-29T03:17:29.816Z,17.05
2017-08-29T03:18:30.537Z,17.02
2017-08-29T03:19:31.279Z,17.09
2017-08-29T03:20:32.003Z,17.02
2017-08-29T03:21:32.725Z,17.08
2017-08-29T03:22:33.450Z,17.11
2017-08-29T03:23:34.172Z,17.11
2017-08-29T03:24:34.920Z,17.12
2017-08-29T03:25:35.641Z,17.11
2017-08-29T03:26:36.362Z,17.05
2017-08-29T03:27:37.086Z,17.09
2017-08-29T03:28:37.826Z,17.04
2017-08-29T03:29:38.552Z,17.01
2017-08-29T03:30:39.276Z,16.99
2017-08-29T03:31:40.018Z,17.02
2017-08-29T03:32:40.762Z,17.05
2017-08-29T03:33:41.486Z,17.02
2017-08-29T03:34:42.209Z,17.05
2017-08-29T03:35:42.952Z,17.04
2017-08-29T03:36:43.673Z,17.04
2017-08-29T03:37:44.398Z,16.99
2017-08-29T03:38:45.141Z,17.02
2017-08-29T03:39:45.885Z,17.05
2017-08-29T03:40:46.609Z,16.97
2017-08-29T03:41:47.331Z,16.97
2017-08-29T03:42:48.076Z,17.02
2017-08-29T03:43:48.799Z,16.96
2017-08-29T03:44:49.543Z,16.94
2017-08-29T03:45:50.270Z,17.01
2017-08-29T03:46:51.010Z,16.94
2017-08-29T03:47:51.755Z,16.99
2017-08-29T03:48:52.483Z,16.94
2017-08-29T03:49:53.227Z,17.05
2017-08-29T03:50:53.954Z,17.01
2017-08-29T03:51:54.676Z,17.02
2017-08-29T03:52:55.400Z,17.04
2017-08-29T03:53:56.121Z,17.04
2017-08-29T03:54:56.844Z,17.02
2017-08-29T03:55:57.584Z,16.91
2017-08-29T03:56:58.305Z,16.96
2017-08-29T03:57:59.033Z,16.96
2017-08-29T03:58:59.753Z,16.91
2017-08-29T04:00:00.475Z,16.87
2017-08-29T04:01:01.198Z,16.84
2017-08-29T04:02:01.920Z,16.87
2017-08-29T04:03:02.660Z,16.90
2017-08-29T04:04:03.382Z,16.84
2017-08-29T04:05:04.104Z,16.90
2017-08-29T04:06:04.826Z,16.94
2017-08-29T04:07:05.546Z,16.86
2017-08-29T04:08:06.269Z,16.84
2017-08-29T04:09:06.992Z,16.99
2017-08-29T04:10:07.713Z,16.94
2017-08-29T04:11:08.456Z,17.01
2017-08-29T04:12:09.211Z,16.93
2017-08-29T04:13:09.950Z,17.05
2017-08-29T04:14:10.675Z,16.96
2017-08-29T04:15:11.398Z,17.01
2017-08-29T04:16:12.141Z,17.04
2017-08-29T04:17:12.869Z,17.11
2017-08-29T04:18:13.593Z,17.12
2017-08-29T04:19:14.340Z,17.14
2017-08-29T04:20:15.063Z,17.24
2017-08-29T04:21:15.785Z,17.23
2017-08-29T04:22:16.539Z,17.24
2017-08-29T04:23:17.230Z,17.30
2017-08-29T04:24:17.959Z,17.30
2017-08-29T04:25:18.681Z,17.27
2017-08-29T04:26:19.405Z,17.34
2017-08-29T04:27:20.150Z,17.41
2017-08-29T04:28:20.876Z,17.34
2017-08-29T04:29:21.596Z,17.36
2017-08-29T04:30:22.329Z,17.36
2017-08-29T04:31:23.072Z,17.38
2017-08-29T04:32:23.796Z,17.38
2017-08-29T04:33:24.522Z,17.34
2017-08-29T04:34:25.265Z,17.29
2017-08-29T04:35:25.991Z,17.38
2017-08-29T04:36:26.719Z,17.39
2017-08-29T04:37:27.442Z,17.34
2017-08-29T04:38:28.163Z,17.36
2017-08-29T04:39:28.887Z,17.42
2017-08-29T04:40:29.614Z,17.36
2017-08-29T04:41:30.344Z,17.51
2017-08-29T04:42:31.064Z,17.51
2017-08-29T04:43:31.789Z,17.44
2017-08-29T04:44:32.514Z,17.41
2017-08-29T04:45:33.261Z,17.48
2017-08-29T04:46:34.006Z,17.46
2017-08-29T04:47:34.753Z,17.49
2017-08-29T04:48:35.476Z,17.44
2017-08-29T04:49:36.203Z,17.45
2017-08-29T04:50:36.930Z,17.45
2017-08-29T04:51:37.662Z,17.41
2017-08-29T04:52:38.389Z,17.49
2017-08-29T04:53:39.118Z,17.54
2017-08-29T04:54:39.845Z,17.49
2017-08-29T04:55:40.565Z,17.44
2017-08-29T04:56:41.298Z,17.41
2017-08-29T04:57:42.022Z,17.46
2017-08-29T04:58:42.745Z,17.51
2017-08-29T04:59:43.474Z,17.57
2017-08-29T05:00:44.205Z,17.60
2017-08-29T05:01:44.927Z,17.65
2017-08-29T05:02:45.654Z,17.59
2017-08-29T05:03:46.382Z,17.65
2017-08-29T05:04:47.129Z,17.65
2017-08-29T05:05:47.853Z,17.67
2017-08-29T05:06:48.583Z,17.74
2017-08-29T05:07:49.309Z,17.79
2017-08-29T05:08:50.040Z,17.72
2017-08-29T05:09:50.767Z,17.76
2017-08-29T05:10:51.493Z,17.78
2017-08-29T05:11:52.242Z,17.76
2017-08-29T05:12:52.996Z,17.72
2017-08-29T05:13:53.721Z,17.72
2017-08-29T05:14:54.451Z,17.76
2017-08-29T05:15:55.178Z,17.74
2017-08-29T05:16:55.906Z,17.76
2017-08-29T05:17:56.634Z,17.72
2017-08-29T05:18:57.359Z,17.79
2017-08-29T05:19:58.088Z,17.74
2017-08-29T05:20:58.816Z,17.79
2017-08-29T05:21:59.546Z,17.79
2017-08-29T05:23:00.275Z,17.78
2017-08-29T05:24:00.999Z,17.71
2017-08-29T05:25:01.725Z,17.68
2017-08-29T05:26:02.453Z,17.65
2017-08-29T05:27:03.180Z,17.82
2017-08-29T05:28:03.912Z,17.79
2017-08-29T05:29:04.641Z,17.86
2017-08-29T05:30:05.367Z,17.85
2017-08-29T05:31:06.095Z,17.87
2017-08-29T05:32:06.827Z,17.90
2017-08-29T05:33:07.551Z,17.85
2017-08-29T05:34:08.279Z,18.01
2017-08-29T05:35:09.033Z,17.95
2017-08-29T05:36:09.762Z,18.08
2017-08-29T05:37:10.483Z,18.04
2017-08-29T05:38:11.215Z,18.04
2017-08-29T05:39:11.943Z,18.05
2017-08-29T05:40:12.672Z,18.16
2017-08-29T05:41:13.399Z,18.20
2017-08-29T05:42:14.129Z,18.29
2017-08-29T05:43:14.854Z,18.34
2017-08-29T05:44:15.583Z,18.34
2017-08-29T05:45:16.311Z,18.38
2017-08-29T05:46:17.041Z,18.40
2017-08-29T05:47:17.771Z,18.49
2017-08-29T05:48:18.498Z,18.47
2017-08-29T05:49:19.222Z,18.44
2017-08-29T05:50:19.952Z,18.45
2017-08-29T05:51:20.701Z,18.58
2017-08-29T05:52:21.430Z,18.59
2017-08-29T05:53:22.158Z,18.59
2017-08-29T05:54:22.886Z,18.62
2017-08-29T05:55:23.613Z,18.66
2017-08-29T05:56:24.344Z,18.58
2017-08-29T05:57:25.079Z,18.56
2017-08-29T05:58:25.805Z,18.59
2017-08-29T05:59:26.534Z,18.68
2017-08-29T06:00:27.265Z,18.65
2017-08-29T06:01:28.010Z,18.74
2017-08-29T06:02:28.758Z,18.80
2017-08-29T06:03:29.491Z,18.80
2017-08-29T06:04:30.215Z,18.86
2017-08-29T06:05:30.947Z,18.88
2017-08-29T06:06:31.697Z,18.88
2017-08-29T06:07:32.447Z,18.98
2017-08-29T06:08:33.175Z,18.93
2017-08-29T06:09:33.902Z,18.98
2017-08-29T06:10:34.654Z,18.96
2017-08-29T06:11:35.380Z,19.00
2017-08-29T06:12:36.112Z,19.12
2017-08-29T06:13:36.837Z,19.09
2017-08-29T06:14:37.568Z,19.15
2017-08-29T06:15:38.295Z,19.14
2017-08-29T06:16:39.028Z,19.15
2017-08-29T06:17:39.754Z,19.12
2017-08-29T06:18:40.507Z,19.21
2017-08-29T06:19:41.234Z,19.31
2017-08-29T06:20:41.967Z,19.26
2017-08-29T06:21:42.713Z,19.31
2017-08-29T06:22:43.449Z,19.39
2017-08-29T06:23:44.178Z,19.54
2017-08-29T06:24:44.932Z,19.51
2017-08-29T06:25:45.683Z,19.52
2017-08-29T06:26:46.411Z,19.55
2017-08-29T06:27:47.165Z,19.62
2017-08-29T06:28:47.898Z,19.73
2017-08-29T06:29:48.625Z,19.74
2017-08-29T06:30:49.358Z,19.82
2017-08-29T06:31:50.111Z,19.79
2017-08-29T06:32:50.862Z,19.88
2017-08-29T06:33:51.591Z,20.03
2017-08-29T06:34:52.322Z,20.11
2017-08-29T06:35:53.050Z,20.13
2017-08-29T06:36:53.799Z,20.24
2017-08-29T06:37:54.554Z,20.09
2017-08-29T06:38:55.284Z,20.10
2017-08-29T06:39:56.016Z,20.04
2017-08-29T06:40:56.746Z,20.10
2017-08-29T06:41:57.500Z,20.11
2017-08-29T06:42:58.229Z,20.09
2017-08-29T06:43:58.986Z,20.13
2017-08-29T06:44:59.736Z,20.31
2017-08-29T06:46:00.447Z,20.29
2017-08-29T06:47:01.203Z,20.40
2017-08-29T06:48:01.959Z,20.44
2017-08-29T06:49:02.689Z,20.40
2017-08-29T06:50:03.426Z,20.52
2017-08-29T06:51:04.156Z,20.60
2017-08-29T06:52:04.914Z,20.72
2017-08-29T06:53:05.650Z,20.90
2017-08-29T06:54:06.385Z,21.12
2017-08-29T06:55:07.118Z,21.17
2017-08-29T06:56:07.874Z,21.32
2017-08-29T06:57:08.613Z,21.40
2017-08-29T06:58:09.370Z,21.57
2017-08-29T06:59:10.102Z,21.67
2017-08-29T07:00:10.842Z,21.67
2017-08-29T07:01:11.581Z,21.80
2017-08-29T07:02:12.314Z,21.95
2017-08-29T07:03:13.073Z,22.08
2017-08-29T07:04:13.805Z,22.29
2017-08-29T07:05:14.543Z,22.44
2017-08-29T07:06:15.281Z,22.55
2017-08-29T07:07:16.020Z,22.63
2017-08-29T07:08:16.755Z,22.72
2017-08-29T07:09:17.518Z,22.63
2017-08-29T07:10:18.279Z,22.59
2017-08-29T07:11:19.034Z,22.81
2017-08-29T07:12:19.773Z,23.09
2017-08-29T07:13:20.514Z,23.32
2017-08-29T07:14:21.276Z,23.28
2017-08-29T07:15:22.018Z,23.34
2017-08-29T07:16:22.749Z,23.54
2017-08-29T07:17:23.486Z,23.43
2017-08-29T07:18:24.227Z,23.55
2017-08-29T07:19:24.967Z,23.59
2017-08-29T07:20:25.708Z,23.54
2017-08-29T07:21:26.448Z,23.18
2017-08-29T07:22:27.191Z,23.20
2017-08-29T07:23:27.952Z,23.09
2017-08-29T07:24:28.691Z,23.21
2017-08-29T07:25:29.431Z,23.31
2017-08-29T07:26:30.175Z,23.40
2017-08-29T07:27:30.917Z,23.50
2017-08-29T07:28:31.645Z,23.58
2017-08-29T07:29:32.405Z,23.68
2017-08-29T07:30:33.164Z,23.78
2017-08-29T07:31:33.898Z,23.73
2017-08-29T07:32:34.639Z,23.71
2017-08-29T07:33:35.375Z,23.87
2017-08-29T07:34:36.113Z,23.96
2017-08-29T07:35:36.868Z,24.17
2017-08-29T07:36:37.609Z,24.43
2017-08-29T07:37:38.349Z,24.38
2017-08-29T07:38:39.085Z,24.43
2017-08-29T07:39:39.825Z,24.35
2017-08-29T07:40:40.562Z,24.45
2017-08-29T07:41:41.324Z,24.47
2017-08-29T07:42:42.060Z,24.50
2017-08-29T07:43:42.798Z,24.89
2017-08-29T07:44:43.537Z,25.13
2017-08-29T07:45:44.276Z,25.16
2017-08-29T07:46:45.011Z,25.16
2017-08-29T07:47:45.752Z,25.31
2017-08-29T07:48:46.491Z,25.35
2017-08-29T07:49:47.234Z,25.36
2017-08-29T07:50:47.997Z,25.32
2017-08-29T07:51:48.756Z,25.04
2017-08-29T07:52:49.514Z,25.43
2017-08-29T07:53:50.253Z,25.83
2017-08-29T07:54:50.994Z,26.03
2017-08-29T07:55:51.736Z,26.38
2017-08-29T07:56:52.480Z,26.19
2017-08-29T07:57:53.220Z,26.33
2017-08-29T07:58:53.956Z,26.33
2017-08-29T07:59:54.697Z,26.44
2017-08-29T08:00:55.440Z,26.33
2017-08-29T08:01:56.177Z,26.58
2017-08-29T08:02:56.918Z,26.25
2017-08-29T08:03:57.677Z,26.02
2017-08-29T08:04:58.422Z,26.59
2017-08-29T08:05:59.161Z,26.95
2017-08-29T08:06:59.923Z,27.02
2017-08-29T08:08:00.690Z,26.80
2017-08-29T08:09:01.427Z,26.88
2017-08-29T08:10:02.190Z,26.74
2017-08-29T08:11:02.957Z,26.78
2017-08-29T08:12:03.718Z,26.77
2017-08-29T08:13:04.458Z,26.81
2017-08-29T08:14:05.224Z,26.10
2017-08-29T08:15:05.969Z,26.00
2017-08-29T08:16:06.708Z,25.95
2017-08-29T08:17:07.455Z,25.75
2017-08-29T08:18:08.195Z,26.02
2017-08-29T08:19:08.957Z,26.43
2017-08-29T08:20:09.701Z,26.71
2017-08-29T08:21:10.442Z,26.43
2017-08-29T08:22:11.188Z,26.52
2017-08-29T08:23:11.927Z,25.83
2017-08-29T08:24:12.673Z,26.38
2017-08-29T08:25:13.438Z,26.26
2017-08-29T08:26:14.197Z,26.13
2017-08-29T08:27:14.962Z,26.36
2017-08-29T08:28:15.729Z,26.81
2017-08-29T08:29:16.494Z,27.03
2017-08-29T08:30:17.236Z,27.44
2017-08-29T08:31:17.979Z,27.54
2017-08-29T08:32:18.721Z,27.15
2017-08-29T08:33:19.466Z,27.18
2017-08-29T08:34:20.210Z,27.33
2017-08-29T08:35:20.954Z,27.47
2017-08-29T08:36:21.693Z,27.22
2017-08-29T08:37:22.436Z,27.29
2017-08-29T08:38:23.184Z,27.33
2017-08-29T08:39:23.926Z,27.71
2017-08-29T08:40:24.669Z,28.11
2017-08-29T08:41:25.418Z,27.90
2017-08-29T08:42:26.158Z,28.15
2017-08-29T08:43:26.904Z,28.66
2017-08-29T08:44:27.649Z,28.69
2017-08-29T08:45:28.396Z,28.79
2017-08-29T08:46:29.139Z,28.88
2017-08-29T08:47:29.883Z,29.59
2017-08-29T08:48:30.629Z,29.41
2017-08-29T08:49:31.375Z,29.19
2017-08-29T08:50:32.123Z,28.81
2017-08-29T08:51:32.872Z,28.81
2017-08-29T08:52:33.618Z,28.60
2017-08-29T08:53:34.374Z,28.69
2017-08-29T08:54:35.121Z,29.02
2017-08-29T08:55:35.895Z,29.41
2017-08-29T08:56:36.650Z,30.03
2017-08-29T08:57:37.397Z,30.48
2017-08-29T08:58:38.153Z,30.54
2017-08-29T08:59:38.901Z,30.46
2017-08-29T09:00:39.672Z,30.03
2017-08-29T09:01:40.426Z,30.21
2017-08-29T09:02:41.200Z,30.34
2017-08-29T09:03:41.952Z,30.48
2017-08-29T09:04:42.711Z,29.91
2017-08-29T09:05:43.487Z,30.48
2017-08-29T09:06:44.241Z,30.53
2017-08-29T09:07:45.012Z,30.65
2017-08-29T09:08:45.767Z,30.61
2017-08-29T09:09:46.519Z,30.81
2017-08-29T09:10:47.272Z,30.27
2017-08-29T09:11:48.034Z,30.21
2017-08-29T09:12:48.779Z,30.28
2017-08-29T09:13:49.529Z,30.59
2017-08-29T09:14:50.285Z,30.99
2017-08-29T09:15:51.033Z,31.31
2017-08-29T09:16:51.787Z,31.22
2017-08-29T09:17:52.540Z,31.21
2017-08-29T09:18:53.314Z,31.07
2017-08-29T09:19:54.061Z,30.91
2017-08-29T09:20:54.815Z,31.42
2017-08-29T09:21:55.570Z,31.10
2017-08-29T09:22:56.318Z,31.61
2017-08-29T09:23:57.076Z,31.73
2017-08-29T09:24:57.822Z,31.46
2017-08-29T09:25:58.578Z,31.96
2017-08-29T09:26:59.329Z,32.52
2017-08-29T09:28:00.081Z,32.03
2017-08-29T09:29:00.855Z,31.87
2017-08-29T09:30:01.603Z,31.54
2017-08-29T09:31:02.360Z,31.66
2017-08-29T09:32:03.112Z,32.34
2017-08-29T09:33:03.865Z,32.33
2017-08-29T09:34:04.612Z,32.34
2017-08-29T09:35:05.359Z,32.37
2017-08-29T09:36:06.112Z,32.22
2017-08-29T09:37:06.877Z,32.27
2017-08-29T09:38:07.626Z,31.96
2017-08-29T09:39:08.382Z,31.61
2017-08-29T09:40:09.132Z,31.56
2017-08-29T09:41:09.883Z,32.01
2017-08-29T09:42:10.634Z,32.59
2017-08-29T09:43:11.377Z,33.15
2017-08-29T09:44:12.133Z,33.07
2017-08-29T09:45:12.884Z,33.19
2017-08-29T09:46:13.631Z,32.70
2017-08-29T09:47:14.381Z,32.89
2017-08-29T09:48:15.134Z,32.80
2017-08-29T09:49:15.883Z,32.65
2017-08-29T09:50:16.633Z,32.48
2017-08-29T09:51:17.385Z,33.08
2017-08-29T09:52:18.138Z,32.83
2017-08-29T09:53:18.888Z,33.01
2017-08-29T09:54:19.643Z,32.89
2017-08-29T09:55:20.394Z,33.17
2017-08-29T09:56:21.146Z,33.58
2017-08-29T09:57:21.896Z,33.11
2017-08-29T09:58:22.648Z,33.58
2017-08-29T09:59:23.398Z,33.23
2017-08-29T10:00:24.150Z,33.19
2017-08-29T10:01:24.904Z,33.37
2017-08-29T10:02:25.651Z,33.47
2017-08-29T10:03:26.423Z,33.98
2017-08-29T10:04:27.174Z,33.96
2017-08-29T10:05:27.927Z,33.11
2017-08-29T10:06:28.675Z,32.63
2017-08-29T10:07:29.430Z,32.59
2017-08-29T10:08:30.203Z,32.40
2017-08-29T10:09:30.952Z,32.68
2017-08-29T10:10:31.705Z,32.75
2017-08-29T10:11:32.452Z,32.78
2017-08-29T10:12:33.203Z,32.33
2017-08-29T10:13:33.951Z,32.93
2017-08-29T10:14:34.699Z,33.39
2017-08-29T10:15:35.448Z,33.53
2017-08-29T10:16:36.199Z,32.58
2017-08-29T10:17:36.948Z,31.80
2017-08-29T10:18:37.698Z,32.18
2017-08-29T10:19:38.458Z,32.68
2017-08-29T10:20:39.211Z,32.33
2017-08-29T10:21:39.963Z,32.33
2017-08-29T10:22:40.730Z,32.41
2017-08-29T10:23:41.500Z,32.52
2017-08-29T10:24:42.247Z,32.73
2017-08-29T10:25:42.994Z,32.80
2017-08-29T10:26:43.743Z,33.40
2017-08-29T10:27:44.487Z,33.86
2017-08-29T10:28:45.232Z,34.18
2017-08-29T10:29:45.982Z,34.52
2017-08-29T10:30:46.753Z,34.93
2017-08-29T10:31:47.521Z,34.95
2017-08-29T10:32:48.274Z,34.60
2017-08-29T10:33:49.046Z,34.29
2017-08-29T10:34:49.791Z,34.29
2017-08-29T10:35:50.539Z,33.08
2017-08-29T10:36:51.289Z,32.92
2017-08-29T10:37:52.036Z,32.34
2017-08-29T10:38:52.784Z,32.22
2017-08-29T10:39:53.532Z,32.36
2017-08-29T10:40:54.285Z,32.75
2017-08-29T10:41:55.029Z,33.11
2017-08-29T10:42:55.777Z,32.78
2017-08-29T10:43:56.543Z,33.28
2017-08-29T10:44:57.293Z,32.89
2017-08-29T10:45:58.063Z,33.01
2017-08-29T10:46:58.811Z,33.12
2017-08-29T10:47:59.556Z,33.37
2017-08-29T10:49:00.307Z,33.90
2017-08-29T10:50:01.057Z,33.96
2017-08-29T10:51:01.805Z,33.84
2017-08-29T10:52:02.549Z,33.76
2017-08-29T10:53:03.303Z,33.99
2017-08-29T10:54:04.050Z,34.45
2017-08-29T10:55:04.794Z,35.12
2017-08-29T10:56:05.545Z,34.52
2017-08-29T10:57:06.314Z,34.73
2017-08-29T10:58:07.066Z,35.12
2017-08-29T10:59:07.836Z,34.60
2017-08-29T11:00:08.586Z,34.50
2017-08-29T11:01:09.331Z,33.94
2017-08-29T11:02:10.079Z,33.95
2017-08-29T11:03:10.831Z,33.98
2017-08-29T11:04:11.599Z,34.39
2017-08-29T11:05:12.352Z,35.18
2017-08-29T11:06:13.101Z,35.36
2017-08-29T11:07:13.848Z,35.37
2017-08-29T11:08:14.602Z,35.05
2017-08-29T11:09:15.372Z,35.41
2017-08-29T11:10:16.119Z,35.24
2017-08-29T11:11:16.872Z,35.41
2017-08-29T11:12:17.643Z,34.74
2017-08-29T11:13:18.391Z,34.43
2017-08-29T11:14:19.141Z,35.08
2017-08-29T11:15:19.890Z,34.96
2017-08-29T11:16:20.638Z,34.86
2017-08-29T11:17:21.389Z,35.29
2017-08-29T11:18:22.159Z,35.41
2017-08-29T11:19:22.908Z,35.07
2017-08-29T11:20:23.661Z,35.53
2017-08-29T11:21:24.431Z,35.45
2017-08-29T11:22:25.180Z,36.02
2017-08-29T11:23:25.928Z,36.08
2017-08-29T11:24:26.680Z,35.45
2017-08-29T11:25:27.429Z,35.55
2017-08-29T11:26:28.178Z,36.01
2017-08-29T11:27:28.930Z,35.23
2017-08-29T11:28:29.678Z,34.99
2017-08-29T11:29:30.429Z,34.32
2017-08-29T11:30:31.175Z,33.99
2017-08-29T11:31:31.921Z,34.25
2017-08-29T11:32:32.671Z,35.04
2017-08-29T11:33:33.417Z,34.67
2017-08-29T11:34:34.171Z,34.17
2017-08-29T11:35:34.921Z,33.61
2017-08-29T11:36:35.664Z,33.99
2017-08-29T11:37:36.410Z,33.55
2017-08-29T11:38:37.161Z,33.79
2017-08-29T11:39:37.911Z,34.21
2017-08-29T11:40:38.655Z,33.73
2017-08-29T11:41:39.425Z,34.10
2017-08-29T11:42:40.174Z,33.98
2017-08-29T11:43:40.925Z,33.36
2017-08-29T11:44:41.671Z,33.40
2017-08-29T11:45:42.423Z,34.02
2017-08-29T11:46:43.186Z,34.51
2017-08-29T11:47:43.933Z,34.30
2017-08-29T11:48:44.702Z,34.64
2017-08-29T11:49:45.447Z,34.55
2017-08-29T11:50:46.197Z,34.47
2017-08-29T11:51:46.965Z,34.39
2017-08-29T11:52:47.717Z,34.06
2017-08-29T11:53:48.461Z,34.18
2017-08-29T11:54:49.232Z,33.89
2017-08-29T11:55:49.979Z,34.06
2017-08-29T11:56:50.731Z,33.89
2017-08-29T11:57:51.478Z,33.81
2017-08-29T11:58:52.248Z,34.03
2017-08-29T11:59:52.997Z,33.87
2017-08-29T12:00:53.763Z,34.17
2017-08-29T12:01:54.514Z,34.18
2017-08-29T12:02:55.281Z,34.75
2017-08-29T12:03:56.029Z,34.97
2017-08-29T12:04:56.779Z,34.85
2017-08-29T12:05:57.528Z,34.86
2017-08-29T12:06:58.273Z,34.27
2017-08-29T12:07:59.027Z,33.76
2017-08-29T12:08:59.773Z,34.23
2017-08-29T12:10:00.523Z,34.64
2017-08-29T12:11:01.290Z,34.66
2017-08-29T12:12:02.041Z,34.70
2017-08-29T12:13:02.786Z,34.64
2017-08-29T12:14:03.537Z,34.81
2017-08-29T12:15:04.305Z,34.13
2017-08-29T12:16:05.055Z,33.84
2017-08-29T12:17:05.803Z,33.94
2017-08-29T12:18:06.553Z,33.98
2017-08-29T12:19:07.298Z,34.40
2017-08-29T12:20:08.046Z,34.21
2017-08-29T12:21:08.801Z,34.38
2017-08-29T12:22:09.538Z,34.78
2017-08-29T12:23:10.290Z,34.51
2017-08-29T12:24:11.035Z,34.57
2017-08-29T12:25:11.788Z,34.30
2017-08-29T12:26:12.530Z,34.62
2017-08-29T12:27:13.277Z,34.40
2017-08-29T12:28:14.024Z,34.78
2017-08-29T12:29:14.795Z,35.12
2017-08-29T12:30:15.545Z,34.71
2017-08-29T12:31:16.289Z,35.14
2017-08-29T12:32:17.041Z,35.19
2017-08-29T12:33:17.789Z,35.11
2017-08-29T12:34:18.535Z,35.04
2017-08-29T12:35:19.284Z,34.36
2017-08-29T12:36:20.028Z,34.29
2017-08-29T12:37:20.779Z,34.38
2017-08-29T12:38:21.522Z,34.36
2017-08-29T12:39:22.269Z,34.42
2017-08-29T12:40:23.015Z,34.99
2017-08-29T12:41:23.761Z,35.52
2017-08-29T12:42:24.517Z,35.46
2017-08-29T12:43:25.259Z,35.11
2017-08-29T12:44:26.004Z,34.29
2017-08-29T12:45:26.749Z,34.32
2017-08-29T12:46:27.497Z,35.15
2017-08-29T12:47:28.262Z,35.42
2017-08-29T12:48:29.010Z,34.48
2017-08-29T12:49:29.758Z,34.95
2017-08-29T12:50:30.501Z,34.95
2017-08-29T12:51:31.271Z,35.55
2017-08-29T12:52:32.043Z,35.45
2017-08-29T12:53:32.787Z,36.39
2017-08-29T12:54:33.557Z,35.89
2017-08-29T12:55:34.302Z,36.33
2017-08-29T12:56:35.046Z,36.81
2017-08-29T12:57:35.797Z,36.64
2017-08-29T12:58:36.561Z,36.05
2017-08-29T12:59:37.310Z,35.24
2017-08-29T13:00:38.058Z,35.51
2017-08-29T13:01:38.809Z,35.18